createdAt,value
2017-07-05T00:00:20.666Z,25.27
2017-07-05T00:01:30.244Z,25.24
2017-07-05T00:02:39.521Z,25.21
2017-07-05T00:03:48.186Z,25.3
2017-07-05T00:04:56.826Z,25.25
2017-07-05T00:06:06.417Z,25.28
2017-07-05T00:07:15.088Z,25.24
2017-07-05T00:08:24.982Z,25.1
2017-07-05T00:09:33.941Z,25.06
2017-07-05T00:10:43.220Z,24.88
2017-07-05T00:11:52.202Z,24.8
2017-07-05T00:13:01.472Z,24.8
2017-07-05T00:14:10.445Z,24.8
2017-07-05T00:15:20.348Z,24.71
2017-07-05T00:16:29.318Z,24.65
2017-07-05T00:17:38.273Z,24.53
2017-07-05T00:18:47.225Z,24.6
2017-07-05T00:19:56.187Z,24.55
2017-07-05T00:21:05.465Z,24.47
2017-07-05T00:22:14.106Z,24.4
2017-07-05T00:23:23.074Z,24.37
2017-07-05T00:24:32.675Z,24.42
2017-07-05T00:25:41.642Z,24.35
2017-07-05T00:26:50.611Z,24.31
2017-07-05T00:27:59.581Z,24.31
2017-07-05T00:29:08.866Z,24.25
2017-07-05T00:30:17.828Z,24.21
2017-07-05T00:31:26.476Z,24.25
2017-07-05T00:32:35.756Z,24.18
2017-07-05T00:33:44.710Z,24.18
2017-07-05T00:34:53.661Z,24.13
2017-07-05T00:36:02.617Z,24.24
2017-07-05T00:37:11.891Z,24.24
2017-07-05T00:38:20.844Z,24.31
2017-07-05T00:39:30.117Z,24.3
2017-07-05T00:40:39.413Z,24.28
2017-07-05T00:41:48.993Z,24.42
2017-07-05T00:42:58.575Z,24.45
2017-07-05T00:44:07.523Z,24.39
2017-07-05T00:45:16.804Z,24.4
2017-07-05T00:46:26.391Z,24.46
2017-07-05T00:47:35.364Z,24.55
2017-07-05T00:48:44.006Z,24.58
2017-07-05T00:49:53.649Z,24.55
2017-07-05T00:51:02.299Z,24.64
2017-07-05T00:52:11.577Z,24.67
2017-07-05T00:53:20.593Z,24.73
2017-07-05T00:54:29.864Z,24.76
2017-07-05T00:55:38.837Z,24.68
2017-07-05T00:56:48.122Z,24.73
2017-07-05T00:57:57.072Z,24.8
2017-07-05T00:59:05.722Z,24.76
2017-07-05T01:00:15.641Z,24.8
2017-07-05T01:01:24.902Z,24.71
2017-07-05T01:02:34.169Z,24.81
2017-07-05T01:03:43.135Z,24.83
2017-07-05T01:04:52.097Z,24.83
2017-07-05T01:06:01.683Z,24.78
2017-07-05T01:07:10.666Z,24.83
2017-07-05T01:08:19.947Z,24.91
2017-07-05T01:09:29.219Z,24.8
2017-07-05T01:10:38.496Z,24.83
2017-07-05T01:11:47.772Z,24.81
2017-07-05T01:12:56.745Z,24.84
2017-07-05T01:14:05.708Z,24.81
2017-07-05T01:15:14.340Z,24.8
2017-07-05T01:16:23.621Z,24.81
2017-07-05T01:17:32.572Z,24.77
2017-07-05T01:18:41.525Z,24.81
2017-07-05T01:19:50.805Z,24.81
2017-07-05T01:20:59.755Z,24.8
2017-07-05T01:22:08.725Z,24.81
2017-07-05T01:23:17.692Z,24.96
2017-07-05T01:24:26.342Z,24.78
2017-07-05T01:25:35.302Z,24.83
2017-07-05T01:26:44.258Z,24.78
2017-07-05T01:27:52.897Z,24.77
2017-07-05T01:29:02.159Z,24.81
2017-07-05T01:30:10.803Z,24.88
2017-07-05T01:31:20.076Z,24.84
2017-07-05T01:32:29.342Z,24.78
2017-07-05T01:33:38.609Z,24.77
2017-07-05T01:34:47.561Z,24.8
2017-07-05T01:35:56.518Z,24.8
2017-07-05T01:37:06.106Z,24.69
2017-07-05T01:38:15.053Z,24.67
2017-07-05T01:39:24.321Z,24.62
2017-07-05T01:40:33.271Z,24.65
2017-07-05T01:41:42.240Z,24.58
2017-07-05T01:42:51.513Z,24.53
2017-07-05T01:44:00.153Z,24.57
2017-07-05T01:45:09.418Z,24.53
2017-07-05T01:46:19.318Z,24.6
2017-07-05T01:47:27.958Z,24.61
2017-07-05T01:48:37.532Z,24.57
2017-07-05T01:49:46.797Z,24.46
2017-07-05T01:50:56.070Z,24.55
2017-07-05T01:52:05.025Z,24.53
2017-07-05T01:53:14.660Z,24.52
2017-07-05T01:54:23.251Z,24.43
2017-07-05T01:55:32.207Z,24.39
2017-07-05T01:56:41.795Z,24.45
2017-07-05T01:57:51.062Z,24.34
2017-07-05T01:59:00.340Z,24.45
2017-07-05T02:00:09.601Z,24.27
2017-07-05T02:01:18.869Z,24.3
2017-07-05T02:02:27.818Z,24.31
2017-07-05T02:03:36.768Z,24.16
2017-07-05T02:04:45.403Z,24.08
2017-07-05T02:05:54.365Z,24.13
2017-07-05T02:07:03.636Z,24.1
2017-07-05T02:08:12.595Z,24.08
2017-07-05T02:09:21.549Z,23.9
2017-07-05T02:10:30.822Z,23.88
2017-07-05T02:11:40.404Z,23.95
2017-07-05T02:12:49.357Z,23.9
2017-07-05T02:13:58.322Z,23.9
2017-07-05T02:15:07.589Z,23.9
2017-07-05T02:16:16.858Z,23.88
2017-07-05T02:17:25.499Z,23.83
2017-07-05T02:18:34.452Z,23.76
2017-07-05T02:19:43.109Z,23.7
2017-07-05T02:20:52.690Z,23.65
2017-07-05T02:22:01.642Z,23.63
2017-07-05T02:23:10.597Z,23.65
2017-07-05T02:24:19.870Z,23.6
2017-07-05T02:25:28.819Z,23.51
2017-07-05T02:26:38.095Z,23.5
2017-07-05T02:27:47.055Z,23.48
2017-07-05T02:28:56.020Z,23.5
2017-07-05T02:30:04.992Z,23.4
2017-07-05T02:31:13.638Z,23.38
2017-07-05T02:32:22.283Z,23.33
2017-07-05T02:33:31.250Z,23.39
2017-07-05T02:34:40.207Z,23.33
2017-07-05T02:35:49.169Z,23.25
2017-07-05T02:36:58.435Z,23.15
2017-07-05T02:38:08.016Z,23.28
2017-07-05T02:39:17.282Z,23.27
2017-07-05T02:40:26.227Z,23.38
2017-07-05T02:41:35.810Z,23.43
2017-07-05T02:42:45.082Z,23.53
2017-07-05T02:43:54.034Z,23.54
2017-07-05T02:45:02.993Z,23.55
2017-07-05T02:46:11.954Z,23.63
2017-07-05T02:47:21.535Z,23.69
2017-07-05T02:48:30.171Z,23.72
2017-07-05T02:49:39.128Z,23.73
2017-07-05T02:50:48.390Z,23.83
2017-07-05T02:51:57.341Z,23.8
2017-07-05T02:53:06.297Z,23.88
2017-07-05T02:54:15.564Z,23.8
2017-07-05T02:55:24.512Z,23.85
2017-07-05T02:56:33.149Z,23.78
2017-07-05T02:57:42.742Z,23.7
2017-07-05T02:58:52.007Z,23.8
2017-07-05T03:00:00.980Z,23.63
2017-07-05T03:01:10.258Z,23.66
2017-07-05T03:02:20.156Z,23.73
2017-07-05T03:03:29.741Z,23.8
2017-07-05T03:04:38.760Z,23.72
2017-07-05T03:05:47.723Z,23.87
2017-07-05T03:06:56.678Z,23.87
2017-07-05T03:08:05.942Z,23.87
2017-07-05T03:09:14.893Z,23.9
2017-07-05T03:10:23.535Z,23.9
2017-07-05T03:11:32.499Z,23.83
2017-07-05T03:12:41.770Z,23.9
2017-07-05T03:13:51.032Z,23.87
2017-07-05T03:15:00.625Z,24.02
2017-07-05T03:16:09.888Z,23.9
2017-07-05T03:17:19.795Z,23.87
2017-07-05T03:18:28.429Z,23.93
2017-07-05T03:19:37.702Z,23.95
2017-07-05T03:20:46.652Z,23.88
2017-07-05T03:21:55.606Z,23.85
2017-07-05T03:23:04.237Z,23.85
2017-07-05T03:24:12.871Z,23.79
2017-07-05T03:25:21.818Z,23.87
2017-07-05T03:26:30.768Z,23.88
2017-07-05T03:27:40.034Z,23.85
2017-07-05T03:28:48.998Z,23.91
2017-07-05T03:29:57.949Z,23.84
2017-07-05T03:31:07.218Z,23.91
2017-07-05T03:32:16.488Z,23.85
2017-07-05T03:33:25.123Z,23.88
2017-07-05T03:34:34.073Z,23.9
2017-07-05T03:35:43.667Z,23.94
2017-07-05T03:36:52.931Z,23.95
2017-07-05T03:38:01.579Z,23.9
2017-07-05T03:39:11.483Z,23.95
2017-07-05T03:40:20.127Z,23.9
2017-07-05T03:41:28.774Z,23.88
2017-07-05T03:42:37.738Z,24
2017-07-05T03:43:47.020Z,24.06
2017-07-05T03:44:56.293Z,24.08
2017-07-05T03:46:05.566Z,24.05
2017-07-05T03:47:14.832Z,24.03
2017-07-05T03:48:23.784Z,24.08
2017-07-05T03:49:33.062Z,24.06
2017-07-05T03:50:41.699Z,24.05
2017-07-05T03:51:51.312Z,24.09
2017-07-05T03:53:00.263Z,24.12
2017-07-05T03:54:09.227Z,24.05
2017-07-05T03:55:18.504Z,23.97
2017-07-05T03:56:27.143Z,23.94
2017-07-05T03:57:36.406Z,23.9
2017-07-05T03:58:45.045Z,23.88
2017-07-05T03:59:53.685Z,23.8
2017-07-05T04:01:02.961Z,23.69
2017-07-05T04:02:12.555Z,23.7
2017-07-05T04:03:21.829Z,23.68
2017-07-05T04:04:31.095Z,23.76
2017-07-05T04:05:40.363Z,23.72
2017-07-05T04:06:49.004Z,23.79
2017-07-05T04:07:57.966Z,23.7
2017-07-05T04:09:07.233Z,23.72
2017-07-05T04:10:16.500Z,23.61
2017-07-05T04:11:25.784Z,23.5
2017-07-05T04:12:35.052Z,23.47
2017-07-05T04:13:44.329Z,23.39
2017-07-05T04:14:53.917Z,23.38
2017-07-05T04:16:02.559Z,23.36
2017-07-05T04:17:11.821Z,23.33
2017-07-05T04:18:20.465Z,23.39
2017-07-05T04:19:29.103Z,23.39
2017-07-05T04:20:37.735Z,23.5
2017-07-05T04:21:46.688Z,23.36
2017-07-05T04:22:55.946Z,23.36
2017-07-05T04:24:04.894Z,23.35
2017-07-05T04:25:13.531Z,23.39
2017-07-05T04:27:26.999Z,23.27
2017-07-05T04:28:35.957Z,23.25
2017-07-05T04:29:45.230Z,23.25
2017-07-05T04:30:54.812Z,23.31
2017-07-05T04:32:04.079Z,23.23
2017-07-05T04:33:13.357Z,23.28
2017-07-05T04:34:22.626Z,23.27
2017-07-05T04:35:31.901Z,23.15
2017-07-05T04:36:41.168Z,23.16
2017-07-05T04:37:49.810Z,23.23
2017-07-05T04:38:59.389Z,23.23
2017-07-05T04:40:08.026Z,23.23
2017-07-05T04:41:17.290Z,23.31
2017-07-05T04:42:26.237Z,23.36
2017-07-05T04:43:35.192Z,23.4
2017-07-05T04:44:44.153Z,23.51
2017-07-05T04:45:53.111Z,23.57
2017-07-05T04:47:02.381Z,23.6
2017-07-05T04:48:11.025Z,23.68
2017-07-05T04:49:19.979Z,23.66
2017-07-05T04:50:28.944Z,23.69
2017-07-05T04:51:37.587Z,23.78
2017-07-05T04:52:46.865Z,23.8
2017-07-05T04:53:55.511Z,23.88
2017-07-05T04:55:04.156Z,23.95
2017-07-05T04:56:13.741Z,23.98
2017-07-05T04:57:22.389Z,24.09
2017-07-05T04:58:31.656Z,24.2
2017-07-05T04:59:40.611Z,24.22
2017-07-05T05:00:49.564Z,24.27
2017-07-05T05:01:58.843Z,24.4
2017-07-05T05:03:07.789Z,24.35
2017-07-05T05:04:17.054Z,24.45
2017-07-05T05:05:26.635Z,24.42
2017-07-05T05:06:35.908Z,24.43
2017-07-05T05:07:44.876Z,24.47
2017-07-05T05:08:54.164Z,24.61
2017-07-05T05:10:03.122Z,24.64
2017-07-05T05:11:12.394Z,24.67
2017-07-05T05:12:21.664Z,24.71
2017-07-05T05:13:30.617Z,24.76
2017-07-05T05:14:39.582Z,24.77
2017-07-05T05:15:49.168Z,24.84
2017-07-05T05:16:58.752Z,24.81
2017-07-05T05:18:08.030Z,24.9
2017-07-05T05:19:16.993Z,24.98
2017-07-05T05:20:25.641Z,25
2017-07-05T05:21:34.601Z,25.09
2017-07-05T05:22:43.552Z,25.13
2017-07-05T05:23:52.506Z,25.21
2017-07-05T05:25:01.459Z,25.23
2017-07-05T05:26:10.422Z,25.3
2017-07-05T05:27:19.069Z,25.38
2017-07-05T05:28:28.029Z,25.57
2017-07-05T05:29:36.742Z,25.57
2017-07-05T05:30:45.697Z,25.67
2017-07-05T05:31:54.337Z,25.77
2017-07-05T05:33:03.667Z,25.91
2017-07-05T05:34:12.699Z,25.92
2017-07-05T05:35:21.724Z,26.07
2017-07-05T05:36:31.013Z,26.13
2017-07-05T05:37:39.662Z,26.25
2017-07-05T05:38:48.619Z,26.35
2017-07-05T05:39:57.588Z,26.4
2017-07-05T05:41:06.243Z,26.6
2017-07-05T05:42:14.956Z,26.66
2017-07-05T05:43:23.941Z,26.77
2017-07-05T05:44:33.210Z,26.77
2017-07-05T05:45:42.801Z,26.89
2017-07-05T05:46:51.778Z,27.06
2017-07-05T05:48:01.171Z,27.06
2017-07-05T05:49:10.441Z,27.1
2017-07-05T05:50:19.408Z,27.29
2017-07-05T05:51:28.381Z,27.31
2017-07-05T05:52:37.984Z,27.31
2017-07-05T05:53:47.567Z,27.28
2017-07-05T05:54:56.216Z,27.29
2017-07-05T05:56:05.169Z,27.28
2017-07-05T05:57:14.468Z,27.27
2017-07-05T05:58:23.783Z,27.31
2017-07-05T05:59:32.427Z,27.29
2017-07-05T06:00:41.717Z,27.29
2017-07-05T06:01:50.380Z,27.36
2017-07-05T06:02:59.661Z,27.29
2017-07-05T06:04:09.261Z,27.22
2017-07-05T06:05:18.222Z,27.37
2017-07-05T06:06:27.495Z,27.32
2017-07-05T06:07:36.457Z,27.4
2017-07-05T06:08:45.103Z,27.41
2017-07-05T06:09:54.389Z,27.47
2017-07-05T06:11:03.678Z,27.51
2017-07-05T06:12:12.959Z,27.59
2017-07-05T06:13:21.935Z,27.67
2017-07-05T06:14:31.263Z,27.67
2017-07-05T06:15:40.246Z,27.66
2017-07-05T06:16:48.908Z,27.78
2017-07-05T06:17:57.893Z,27.79
2017-07-05T06:19:07.169Z,27.92
2017-07-05T06:20:15.811Z,27.94
2017-07-05T06:21:25.574Z,28.03
2017-07-05T06:22:34.573Z,28.24
2017-07-05T06:23:43.218Z,28.24
2017-07-05T06:24:52.498Z,28.34
2017-07-05T06:26:01.483Z,28.4
2017-07-05T06:27:10.452Z,28.56
2017-07-05T06:28:19.418Z,28.55
2017-07-05T06:29:29.026Z,28.56
2017-07-05T06:30:38.660Z,28.7
2017-07-05T06:31:47.630Z,28.8
2017-07-05T06:32:56.620Z,28.76
2017-07-05T06:34:05.608Z,28.92
2017-07-05T06:35:15.558Z,28.92
2017-07-05T06:36:24.225Z,29
2017-07-05T06:37:33.834Z,28.95
2017-07-05T06:38:43.157Z,29.04
2017-07-05T06:39:52.443Z,28.98
2017-07-05T06:41:01.416Z,29.02
2017-07-05T06:42:10.072Z,28.95
2017-07-05T06:43:19.679Z,29.09
2017-07-05T06:44:28.663Z,29.09
2017-07-05T06:45:37.964Z,29.05
2017-07-05T06:46:47.366Z,29.06
2017-07-05T06:47:56.370Z,29.06
2017-07-05T06:49:05.020Z,29.12
2017-07-05T06:50:13.692Z,29.16
2017-07-05T06:51:23.001Z,29.11
2017-07-05T06:52:31.970Z,29.08
2017-07-05T06:53:41.248Z,29.12
2017-07-05T06:54:50.519Z,29.21
2017-07-05T06:55:59.513Z,29.18
2017-07-05T06:57:08.186Z,29.26
2017-07-05T06:58:16.857Z,29.16
2017-07-05T06:59:26.134Z,29.11
2017-07-05T07:00:35.731Z,29.12
2017-07-05T07:01:45.021Z,29.06
2017-07-05T07:02:54.321Z,29.18
2017-07-05T07:04:03.282Z,29.21
2017-07-05T07:05:12.241Z,29.15
2017-07-05T07:06:21.892Z,29.24
2017-07-05T07:07:30.559Z,29.34
2017-07-05T07:08:39.531Z,29.37
2017-07-05T07:09:48.502Z,29.46
2017-07-05T07:10:57.181Z,29.58
2017-07-05T07:12:06.154Z,29.63
2017-07-05T07:13:15.231Z,29.78
2017-07-05T07:14:24.215Z,29.97
2017-07-05T07:15:33.191Z,30.05
2017-07-05T07:16:42.695Z,30.15
2017-07-05T07:17:51.977Z,30.38
2017-07-05T07:19:00.955Z,30.47
2017-07-05T07:20:09.941Z,30.75
2017-07-05T07:21:18.906Z,30.92
2017-07-05T07:22:28.175Z,31.06
2017-07-05T07:23:36.823Z,31.26
2017-07-05T07:24:46.108Z,31.47
2017-07-05T07:25:55.695Z,31.7
2017-07-05T07:27:04.666Z,31.89
2017-07-05T07:28:13.627Z,32.15
2017-07-05T07:29:22.595Z,32.4
2017-07-05T07:30:31.891Z,32.56
2017-07-05T07:31:40.543Z,32.79
2017-07-05T07:32:50.135Z,33.03
2017-07-05T07:33:59.119Z,33.21
2017-07-05T07:35:08.103Z,33.51
2017-07-05T07:36:16.752Z,33.59
2017-07-05T07:37:26.042Z,33.78
2017-07-05T07:38:35.078Z,34.06
2017-07-05T07:39:44.374Z,34.17
2017-07-05T07:40:53.690Z,34.47
2017-07-05T07:42:02.969Z,34.62
2017-07-05T07:43:11.623Z,34.7
2017-07-05T07:44:20.283Z,34.89
2017-07-05T07:45:29.249Z,35.03
2017-07-05T07:46:37.913Z,35.22
2017-07-05T07:47:46.888Z,35.38
2017-07-05T07:48:56.162Z,35.55
2017-07-05T07:50:05.162Z,35.71
2017-07-05T07:51:14.126Z,35.8
2017-07-05T07:52:23.084Z,35.93
2017-07-05T07:53:31.743Z,36.15
2017-07-05T07:54:41.021Z,36.31
2017-07-05T07:55:50.619Z,36.41
2017-07-05T07:57:00.273Z,36.46
2017-07-05T07:58:09.570Z,36.57
2017-07-05T07:59:18.532Z,36.69
2017-07-05T08:00:27.801Z,36.83
2017-07-05T08:01:37.088Z,36.88
2017-07-05T08:02:46.370Z,36.99
2017-07-05T08:03:55.684Z,37.12
2017-07-05T08:05:04.651Z,37.28
2017-07-05T08:06:13.612Z,37.22
2017-07-05T08:07:22.573Z,37.39
2017-07-05T08:08:31.542Z,37.29
2017-07-05T08:09:40.818Z,37.44
2017-07-05T08:10:49.791Z,37.62
2017-07-05T08:11:58.448Z,37.67
2017-07-05T08:13:07.751Z,37.66
2017-07-05T08:14:16.727Z,37.63
2017-07-05T08:15:25.444Z,37.74
2017-07-05T08:16:34.103Z,37.69
2017-07-05T08:17:43.066Z,37.78
2017-07-05T08:18:52.341Z,37.88
2017-07-05T08:20:01.302Z,37.82
2017-07-05T08:21:10.274Z,37.96
2017-07-05T08:22:19.559Z,38.04
2017-07-05T08:23:28.212Z,38.07
2017-07-05T08:24:37.812Z,38.19
2017-07-05T08:25:46.479Z,38.22
2017-07-05T08:26:55.773Z,38.28
2017-07-05T08:28:04.760Z,38.28
2017-07-05T08:29:13.403Z,38.25
2017-07-05T08:30:22.695Z,38.22
2017-07-05T08:31:31.661Z,38.35
2017-07-05T08:32:40.627Z,38.31
2017-07-05T08:33:49.909Z,38.34
2017-07-05T08:34:58.573Z,38.37
2017-07-05T08:36:08.549Z,38.4
2017-07-05T08:37:17.833Z,38.31
2017-07-05T08:38:27.107Z,38.4
2017-07-05T08:39:36.067Z,38.4
2017-07-05T08:40:45.040Z,38.34
2017-07-05T08:41:54.356Z,38.28
2017-07-05T08:43:03.968Z,38.26
2017-07-05T08:44:13.253Z,38
2017-07-05T08:45:23.473Z,37.76
2017-07-05T08:46:32.436Z,37.46
2017-07-05T08:47:41.395Z,37.2
2017-07-05T08:48:51.001Z,36.8
2017-07-05T08:50:00.299Z,36.51
2017-07-05T08:51:09.282Z,36.19
2017-07-05T08:52:18.259Z,35.84
2017-07-05T08:53:27.233Z,35.56
2017-07-05T08:54:35.887Z,35.26
2017-07-05T08:55:45.497Z,34.91
2017-07-05T08:56:54.547Z,34.77
2017-07-05T08:58:03.196Z,34.49
2017-07-05T08:59:12.784Z,34.12
2017-07-05T09:00:22.069Z,33.82
2017-07-05T09:01:31.047Z,33.57
2017-07-05T09:02:39.703Z,33.37
2017-07-05T09:03:48.981Z,33.09
2017-07-05T09:04:57.946Z,32.94
2017-07-05T09:06:06.609Z,32.72
2017-07-05T09:07:15.261Z,32.51
2017-07-05T09:08:24.232Z,32.43
2017-07-05T09:09:33.515Z,32.26
2017-07-05T09:10:42.166Z,32.07
2017-07-05T09:11:51.466Z,31.85
2017-07-05T09:13:00.447Z,31.7
2017-07-05T09:14:10.114Z,31.57
2017-07-05T09:15:19.086Z,31.29
2017-07-05T09:16:28.685Z,31.21
2017-07-05T09:17:37.970Z,31.1
2017-07-05T09:18:46.938Z,30.98
2017-07-05T09:19:55.904Z,30.88
2017-07-05T09:21:04.560Z,30.69
2017-07-05T09:22:13.342Z,30.62
2017-07-05T09:23:22.003Z,30.47
2017-07-05T09:24:30.660Z,30.34
2017-07-05T09:25:40.256Z,30.34
2017-07-05T09:26:49.239Z,30.17
2017-07-05T09:27:58.839Z,30.17
2017-07-05T09:29:07.809Z,30.08
2017-07-05T09:30:17.415Z,29.94
2017-07-05T09:31:26.073Z,29.87
2017-07-05T09:32:35.381Z,29.74
2017-07-05T09:33:44.044Z,29.65
2017-07-05T09:34:53.337Z,29.64
2017-07-05T09:36:02.622Z,29.52
2017-07-05T09:37:12.221Z,29.51
2017-07-05T09:38:21.493Z,29.51
2017-07-05T09:39:30.459Z,29.43
2017-07-05T09:40:39.421Z,29.31
2017-07-05T09:41:49.071Z,29.3
2017-07-05T09:42:58.034Z,29.21
2017-07-05T09:44:07.317Z,29.24
2017-07-05T09:45:16.919Z,29.16
2017-07-05T09:46:25.888Z,29.05
2017-07-05T09:47:35.169Z,29.06
2017-07-05T09:48:44.465Z,29.02
2017-07-05T09:49:54.381Z,28.95
2017-07-05T09:51:03.684Z,28.92
2017-07-05T09:52:12.653Z,28.85
2017-07-05T09:53:21.616Z,28.95
2017-07-05T09:54:30.900Z,28.89
2017-07-05T09:55:40.176Z,28.74
2017-07-05T09:56:49.135Z,28.74
2017-07-05T09:57:58.102Z,28.8
2017-07-05T09:59:07.381Z,28.71
2017-07-05T10:00:16.415Z,28.67
2017-07-05T10:01:26.015Z,28.64
2017-07-05T10:02:34.977Z,28.66
2017-07-05T10:03:43.649Z,28.58
2017-07-05T10:04:52.944Z,28.58
2017-07-05T10:06:01.599Z,28.61
2017-07-05T10:07:11.182Z,28.59
2017-07-05T10:08:20.143Z,28.48
2017-07-05T10:09:29.428Z,28.52
2017-07-05T10:10:38.396Z,28.51
2017-07-05T10:11:47.676Z,28.54
2017-07-05T10:12:56.960Z,28.44
2017-07-05T10:14:06.552Z,28.37
2017-07-05T10:15:15.836Z,28.34
2017-07-05T10:16:24.823Z,28.37
2017-07-05T10:17:34.101Z,28.33
2017-07-05T10:18:43.682Z,28.39
2017-07-05T10:19:52.643Z,28.36
2017-07-05T10:21:02.252Z,28.36
2017-07-05T10:22:11.532Z,28.24
2017-07-05T10:23:20.185Z,28.27
2017-07-05T10:24:29.164Z,28.21
2017-07-05T10:25:38.132Z,28.19
2017-07-05T10:26:47.420Z,28.21
2017-07-05T10:27:56.697Z,28.19
2017-07-05T10:29:06.296Z,28.15
2017-07-05T10:30:15.597Z,28.07
2017-07-05T10:31:24.287Z,28.15
2017-07-05T10:32:33.924Z,28.12
2017-07-05T10:33:42.889Z,28.06
2017-07-05T10:34:52.183Z,27.99
2017-07-05T10:36:01.465Z,27.96
2017-07-05T10:37:11.064Z,27.92
2017-07-05T10:38:20.023Z,27.97
2017-07-05T10:39:29.306Z,27.96
2017-07-05T10:40:37.958Z,28.03
2017-07-05T10:41:47.566Z,28
2017-07-05T10:42:56.542Z,27.99
2017-07-05T10:44:05.523Z,27.96
2017-07-05T10:45:14.807Z,27.99
2017-07-05T10:46:24.105Z,28.02
2017-07-05T10:47:33.384Z,27.92
2017-07-05T10:48:42.033Z,27.93
2017-07-05T10:49:50.697Z,28
2017-07-05T10:50:59.989Z,27.97
2017-07-05T10:52:08.644Z,27.97
2017-07-05T10:53:17.602Z,27.94
2017-07-05T10:54:26.562Z,28
2017-07-05T10:55:35.857Z,27.93
2017-07-05T10:56:44.828Z,27.88
2017-07-05T10:57:53.799Z,27.92
2017-07-05T10:59:03.079Z,27.92
2017-07-05T11:00:12.357Z,27.84
2017-07-05T11:01:21.639Z,27.9
2017-07-05T11:02:30.610Z,27.85
2017-07-05T11:03:39.595Z,27.9
2017-07-05T11:04:48.881Z,27.94
2017-07-05T11:05:57.534Z,28
2017-07-05T11:07:07.129Z,27.85
2017-07-05T11:08:16.408Z,27.84
2017-07-05T11:09:25.381Z,27.88
2017-07-05T11:10:34.039Z,27.85
2017-07-05T11:11:43.009Z,27.85
2017-07-05T11:12:51.985Z,27.88
2017-07-05T11:14:00.636Z,27.82
2017-07-05T11:15:10.245Z,27.85
2017-07-05T11:16:19.236Z,27.84
2017-07-05T11:17:28.204Z,27.81
2017-07-05T11:18:37.195Z,27.81
2017-07-05T11:19:46.470Z,27.81
2017-07-05T11:20:55.767Z,27.81
2017-07-05T11:22:05.064Z,27.81
2017-07-05T11:23:14.060Z,27.84
2017-07-05T11:24:23.026Z,27.72
2017-07-05T11:25:31.990Z,27.82
2017-07-05T11:26:41.266Z,27.82
2017-07-05T11:27:50.341Z,27.85
2017-07-05T11:28:59.941Z,27.84
2017-07-05T11:30:08.600Z,27.88
2017-07-05T11:31:17.576Z,27.82
2017-07-05T11:32:26.562Z,27.84
2017-07-05T11:33:35.522Z,27.72
2017-07-05T11:34:44.829Z,27.72
2017-07-05T11:35:54.108Z,27.74
2017-07-05T11:37:03.088Z,27.79
2017-07-05T11:38:11.752Z,27.82
2017-07-05T11:39:20.436Z,27.69
2017-07-05T11:40:29.096Z,27.67
2017-07-05T11:41:38.529Z,27.69
2017-07-05T11:42:47.541Z,27.63
2017-07-05T11:43:56.508Z,27.69
2017-07-05T11:45:05.790Z,27.75
2017-07-05T11:46:14.456Z,27.63
2017-07-05T11:47:23.432Z,27.63
2017-07-05T11:48:32.726Z,27.62
2017-07-05T11:49:41.704Z,27.63
2017-07-05T11:50:50.670Z,27.67
2017-07-05T11:51:59.350Z,27.57
2017-07-05T11:53:08.005Z,27.63
2017-07-05T11:54:16.651Z,27.65
2017-07-05T11:55:25.613Z,27.66
2017-07-05T11:56:34.932Z,27.62
2017-07-05T11:57:44.214Z,27.59
2017-07-05T11:58:52.878Z,27.62
2017-07-05T12:00:01.534Z,27.54
2017-07-05T12:01:10.834Z,27.55
2017-07-05T12:02:20.120Z,27.55
2017-07-05T12:03:29.077Z,27.51
2017-07-05T12:04:38.039Z,27.57
2017-07-05T12:05:46.703Z,27.55
2017-07-05T12:06:55.716Z,27.51
2017-07-05T12:08:04.993Z,27.5
2017-07-05T12:09:13.959Z,27.5
2017-07-05T12:10:23.286Z,27.43
2017-07-05T12:11:31.941Z,27.43
2017-07-05T12:12:40.924Z,27.51
2017-07-05T12:13:50.220Z,27.43
2017-07-05T12:14:59.530Z,27.51
2017-07-05T12:16:08.172Z,27.44
2017-07-05T12:17:17.148Z,27.37
2017-07-05T12:18:26.756Z,27.32
2017-07-05T12:19:36.061Z,27.37
2017-07-05T12:20:45.396Z,27.39
2017-07-05T12:21:54.380Z,27.36
2017-07-05T12:23:03.348Z,27.4
2017-07-05T12:24:12.028Z,27.4
2017-07-05T12:25:21.008Z,27.41
2017-07-05T12:26:29.663Z,27.36
2017-07-05T12:27:38.335Z,27.43
2017-07-05T12:28:47.328Z,27.37
2017-07-05T12:29:56.933Z,27.39
2017-07-05T12:31:05.917Z,27.37
2017-07-05T12:32:14.907Z,27.34
2017-07-05T12:33:23.905Z,27.37
2017-07-05T12:34:33.202Z,27.36
2017-07-05T12:35:42.493Z,27.39
2017-07-05T12:36:51.166Z,27.44
2017-07-05T12:38:00.151Z,27.39
2017-07-05T12:39:09.129Z,27.36
2017-07-05T12:40:18.126Z,27.4
2017-07-05T12:41:27.114Z,27.37
2017-07-05T12:42:36.103Z,27.4
2017-07-05T12:43:45.394Z,27.4
2017-07-05T12:44:54.386Z,27.39
2017-07-05T12:46:03.697Z,27.4
2017-07-05T12:47:12.993Z,27.39
2017-07-05T12:48:21.975Z,27.39
2017-07-05T12:49:30.647Z,27.36
2017-07-05T12:50:39.676Z,27.34
2017-07-05T12:51:49.601Z,27.36
2017-07-05T12:52:58.891Z,27.36
2017-07-05T12:54:08.203Z,27.31
2017-07-05T12:55:17.168Z,27.36
2017-07-05T12:56:26.144Z,27.29
2017-07-05T12:57:35.121Z,27.29
2017-07-05T12:58:43.806Z,27.31
2017-07-05T12:59:53.424Z,27.31
2017-07-05T13:01:02.394Z,27.32
2017-07-05T13:02:11.362Z,27.37
2017-07-05T13:03:20.347Z,27.36
2017-07-05T13:04:29.637Z,27.29
2017-07-05T13:05:38.607Z,27.32
2017-07-05T13:06:47.269Z,27.32
2017-07-05T13:07:56.233Z,27.37
2017-07-05T13:09:05.197Z,27.29
2017-07-05T13:10:14.475Z,27.32
2017-07-05T13:11:23.436Z,27.36
2017-07-05T13:12:32.095Z,27.36
2017-07-05T13:13:41.085Z,27.29
2017-07-05T13:14:50.059Z,27.32
2017-07-05T13:15:58.725Z,27.28
2017-07-05T13:17:08.014Z,27.34
2017-07-05T13:18:16.994Z,27.31
2017-07-05T13:19:25.659Z,27.36
2017-07-05T13:20:34.944Z,27.36
2017-07-05T13:21:44.233Z,27.34
2017-07-05T13:22:53.234Z,27.37
2017-07-05T13:24:02.202Z,27.39
2017-07-05T13:25:11.199Z,27.28
2017-07-05T13:26:20.173Z,27.39
2017-07-05T13:27:29.451Z,27.39
2017-07-05T13:28:38.121Z,27.29
2017-07-05T13:29:48.023Z,27.36
2017-07-05T13:30:56.700Z,27.39
2017-07-05T13:32:05.995Z,27.32
2017-07-05T13:33:15.278Z,27.36
2017-07-05T13:34:24.554Z,27.39
2017-07-05T13:35:33.201Z,27.36
2017-07-05T13:36:42.173Z,27.36
2017-07-05T13:37:50.830Z,27.37
2017-07-05T13:38:59.551Z,27.4
2017-07-05T13:40:08.217Z,27.32
2017-07-05T13:41:17.188Z,27.31
2017-07-05T13:42:26.810Z,27.36
2017-07-05T13:43:36.103Z,27.43
2017-07-05T13:44:45.099Z,27.37
2017-07-05T13:45:53.757Z,27.37
2017-07-05T13:47:03.362Z,27.34
2017-07-05T13:48:12.322Z,27.24
2017-07-05T13:49:21.617Z,27.4
2017-07-05T13:50:30.288Z,27.36
2017-07-05T13:51:38.998Z,27.39
2017-07-05T13:52:48.292Z,27.44
2017-07-05T13:53:57.121Z,27.46
2017-07-05T13:55:06.407Z,27.39
2017-07-05T13:56:15.376Z,27.37
2017-07-05T13:57:24.662Z,27.39
2017-07-05T13:58:34.409Z,27.4
2017-07-05T13:59:44.008Z,27.36
2017-07-05T14:00:52.978Z,27.37
2017-07-05T14:02:02.271Z,27.39
2017-07-05T14:03:11.889Z,27.4
2017-07-05T14:04:21.488Z,27.4
2017-07-05T14:05:31.455Z,27.4
2017-07-05T14:06:40.113Z,27.36
2017-07-05T14:07:49.171Z,27.4
2017-07-05T14:08:58.586Z,27.39
2017-07-05T14:10:07.248Z,27.36
2017-07-05T14:11:16.529Z,27.37
2017-07-05T14:12:26.448Z,27.47
2017-07-05T14:13:35.480Z,27.4
2017-07-05T14:14:44.780Z,27.41
2017-07-05T14:15:53.441Z,27.34
2017-07-05T14:17:02.736Z,27.49
2017-07-05T14:18:11.711Z,27.41
2017-07-05T14:19:20.366Z,27.43
2017-07-05T14:20:29.412Z,27.39
2017-07-05T14:21:38.699Z,27.43
2017-07-05T14:22:47.991Z,27.4
2017-07-05T14:23:56.666Z,27.44
2017-07-05T14:25:05.628Z,27.32
2017-07-05T14:26:14.605Z,27.39
2017-07-05T14:27:23.279Z,27.37
2017-07-05T14:28:31.943Z,27.39
2017-07-05T14:29:40.943Z,27.39
2017-07-05T14:30:49.928Z,27.37
2017-07-05T14:31:58.608Z,27.41
2017-07-05T14:33:07.592Z,27.36
2017-07-05T14:34:16.276Z,27.32
2017-07-05T14:35:25.566Z,27.34
2017-07-05T14:36:34.838Z,27.31
2017-07-05T14:37:43.812Z,27.36
2017-07-05T14:38:53.085Z,27.34
2017-07-05T14:40:02.049Z,27.31
2017-07-05T14:41:11.024Z,27.27
2017-07-05T14:42:20.325Z,27.37
2017-07-05T14:43:29.326Z,27.31
2017-07-05T14:44:37.990Z,27.31
2017-07-05T14:45:47.266Z,27.32
2017-07-05T14:46:56.926Z,27.24
2017-07-05T14:48:05.591Z,27.36
2017-07-05T14:49:14.240Z,27.39
2017-07-05T14:50:23.515Z,27.25
2017-07-05T14:51:32.158Z,27.37
2017-07-05T14:52:41.753Z,27.31
2017-07-05T14:53:50.442Z,27.22
2017-07-05T14:54:59.725Z,27.27